createdAt,value
2023-05-08T00:01:31.201Z,18.98
2023-05-08T00:03:58.534Z,18.90
2023-05-08T00:06:27.140Z,18.93
2023-05-08T00:08:55.348Z,18.90
2023-05-08T00:11:22.402Z,18.44
2023-05-08T00:13:49.459Z,18.84
2023-05-08T00:16:16.525Z,19.16
2023-05-08T00:18:43.497Z,19.35
2023-05-08T00:21:10.520Z,19.46
2023-05-08T00:23:37.747Z,19.60
2023-05-08T00:26:04.878Z,19.44
2023-05-08T00:28:31.823Z,19.61
2023-05-08T00:31:04.751Z,19.41
2023-05-08T00:33:31.909Z,19.39
2023-05-08T00:36:02.424Z,19.30
2023-05-08T00:38:35.973Z,19.33
2023-05-08T00:41:03.142Z,19.07
2023-05-08T00:43:30.213Z,19.22
2023-05-08T00:45:59.048Z,19.35
2023-05-08T00:48:26.048Z,19.48
2023-05-08T00:50:53.275Z,19.49
2023-05-08T00:53:20.819Z,19.54
2023-05-08T00:55:47.795Z,19.43
2023-05-08T00:58:14.841Z,19.37
2023-05-08T01:00:41.943Z,19.27
2023-05-08T01:03:09.695Z,19.17
2023-05-08T01:05:36.883Z,19.22
2023-05-08T01:08:04.051Z,19.33
2023-05-08T01:10:44.905Z,19.41
2023-05-08T01:13:18.756Z,19.54
2023-05-08T01:15:50.161Z,19.58
2023-05-08T01:18:29.063Z,19.59
2023-05-08T01:21:14.461Z,19.30
2023-05-08T01:23:57.480Z,19.29
2023-05-08T01:26:52.420Z,19.30
2023-05-08T01:29:44.305Z,19.14
2023-05-08T01:32:30.544Z,19.12
2023-05-08T01:35:06.684Z,19.03
2023-05-08T01:37:46.333Z,17.94
2023-05-08T01:40:35.482Z,17.50
2023-05-08T01:43:18.067Z,17.97
2023-05-08T01:45:48.706Z,18.27
2023-05-08T01:48:23.032Z,18.10
2023-05-08T01:51:02.559Z,18.24
2023-05-08T01:53:31.765Z,18.44
2023-05-08T01:56:12.238Z,18.48
2023-05-08T01:58:39.362Z,18.36
2023-05-08T02:01:06.329Z,17.91
2023-05-08T02:03:33.651Z,16.79
2023-05-08T02:06:01.035Z,16.28
2023-05-08T02:08:29.263Z,15.90
2023-05-08T02:10:56.828Z,16.16
2023-05-08T02:13:23.989Z,16.03
2023-05-08T02:15:51.947Z,16.14
2023-05-08T02:18:20.690Z,16.21
2023-05-08T02:20:49.265Z,15.82
2023-05-08T02:23:16.601Z,16.08
2023-05-08T02:25:43.908Z,16.29
2023-05-08T02:28:10.899Z,16.44
2023-05-08T02:30:39.200Z,16.32
2023-05-08T02:33:08.151Z,16.62
2023-05-08T02:35:35.505Z,16.81
2023-05-08T02:38:02.575Z,16.43
2023-05-08T02:40:29.625Z,15.59
2023-05-08T02:42:57.370Z,15.51
2023-05-08T02:45:27.374Z,15.67
2023-05-08T02:48:08.048Z,15.42
2023-05-08T02:50:38.817Z,15.53
2023-05-08T02:53:09.487Z,15.22
2023-05-08T02:55:46.006Z,15.28
2023-05-08T02:58:35.238Z,15.66
2023-05-08T03:01:23.962Z,15.82
2023-05-08T03:03:57.454Z,16.17
2023-05-08T03:06:24.544Z,16.39
2023-05-08T03:08:51.593Z,16.15
2023-05-08T03:11:21.820Z,15.50
2023-05-08T03:13:48.773Z,15.56
2023-05-08T03:16:18.854Z,16.20
2023-05-08T03:19:07.496Z,15.62
2023-05-08T03:21:34.806Z,15.80
2023-05-08T03:24:02.353Z,15.40
2023-05-08T03:26:29.447Z,15.86
2023-05-08T03:28:56.687Z,15.75
2023-05-08T03:31:28.071Z,16.23
2023-05-08T03:33:55.163Z,16.42
2023-05-08T03:36:24.970Z,15.75
2023-05-08T03:38:52.219Z,15.75
2023-05-08T03:41:19.504Z,15.83
2023-05-08T03:43:47.442Z,15.76
2023-05-08T03:46:14.449Z,15.80
2023-05-08T03:48:41.500Z,15.43
2023-05-08T03:51:08.491Z,15.72
2023-05-08T03:53:38.190Z,16.03
2023-05-08T03:56:05.338Z,15.86
2023-05-08T03:58:49.219Z,16.08
2023-05-08T04:01:16.150Z,15.94
2023-05-08T04:03:59.368Z,15.13
2023-05-08T04:06:48.568Z,15.54
2023-05-08T04:09:25.241Z,15.08
2023-05-08T04:12:10.913Z,15.45
2023-05-08T04:14:56.391Z,15.39
2023-05-08T04:17:40.526Z,15.99
2023-05-08T04:20:10.305Z,15.33
2023-05-08T04:22:37.478Z,15.12
2023-05-08T04:25:05.274Z,15.13
2023-05-08T04:27:32.269Z,15.05
2023-05-08T04:29:59.319Z,14.88
2023-05-08T04:32:26.575Z,15.63
2023-05-08T04:34:55.422Z,15.01
2023-05-08T04:37:27.495Z,15.35
2023-05-08T04:39:56.558Z,15.03
2023-05-08T04:42:25.951Z,15.50
2023-05-08T04:44:54.931Z,15.49
2023-05-08T04:47:22.209Z,15.41
2023-05-08T04:49:49.182Z,15.25
2023-05-08T04:52:16.325Z,15.81
2023-05-08T04:54:43.238Z,16.18
2023-05-08T04:57:10.685Z,15.90
2023-05-08T04:59:37.691Z,16.20
2023-05-08T05:02:06.846Z,16.30
2023-05-08T05:04:35.554Z,16.27
2023-05-08T05:07:03.800Z,16.44
2023-05-08T05:09:30.841Z,16.48
2023-05-08T05:11:58.378Z,15.39
2023-05-08T05:14:25.602Z,15.29
2023-05-08T05:16:52.851Z,15.19
2023-05-08T05:19:19.979Z,14.81
2023-05-08T05:21:47.023Z,14.57
2023-05-08T05:24:14.133Z,14.28
2023-05-08T05:26:41.315Z,13.97
2023-05-08T05:29:08.501Z,14.28
2023-05-08T05:31:35.609Z,13.86
2023-05-08T05:34:02.609Z,14.55
2023-05-08T05:36:30.840Z,15.03
2023-05-08T05:38:57.872Z,14.20
2023-05-08T05:41:24.903Z,14.73
2023-05-08T05:43:51.964Z,14.86
2023-05-08T05:46:19.190Z,14.73
2023-05-08T05:48:46.396Z,15.13
2023-05-08T05:51:14.044Z,14.45
2023-05-08T05:53:41.121Z,14.31
2023-05-08T05:56:08.230Z,14.44
2023-05-08T05:58:35.481Z,15.27
2023-05-08T06:01:02.475Z,15.75
2023-05-08T06:03:30.612Z,15.72
2023-05-08T06:05:58.211Z,16.04
2023-05-08T06:08:27.095Z,15.78
2023-05-08T06:10:56.748Z,15.39
2023-05-08T06:13:23.924Z,15.94
2023-05-08T06:15:51.618Z,16.05
2023-05-08T06:18:18.689Z,15.90
2023-05-08T06:20:45.673Z,16.07
2023-05-08T06:23:13.415Z,16.12
2023-05-08T06:25:40.418Z,15.89
2023-05-08T06:28:08.343Z,15.96
2023-05-08T06:30:35.455Z,14.53
2023-05-08T06:33:02.541Z,14.95
2023-05-08T06:35:29.676Z,15.32
2023-05-08T06:37:56.773Z,15.66
2023-05-08T06:40:23.896Z,15.75
2023-05-08T06:42:51.115Z,15.28
2023-05-08T06:45:18.221Z,15.03
2023-05-08T06:47:45.248Z,14.85
2023-05-08T06:50:12.277Z,14.02
2023-05-08T06:52:39.336Z,14.65
2023-05-08T06:55:06.519Z,13.79
2023-05-08T06:57:33.633Z,13.02
2023-05-08T07:00:00.893Z,14.01
2023-05-08T07:02:28.048Z,14.30
2023-05-08T07:04:55.159Z,14.83
2023-05-08T07:07:22.456Z,14.83
2023-05-08T07:09:49.448Z,15.17
2023-05-08T07:12:16.862Z,15.41
2023-05-08T07:14:43.966Z,15.06
2023-05-08T07:17:11.124Z,15.08
2023-05-08T07:19:38.362Z,15.03
2023-05-08T07:22:05.799Z,15.25
2023-05-08T07:24:33.109Z,15.04
2023-05-08T07:27:00.197Z,15.40
2023-05-08T07:29:27.223Z,15.63
2023-05-08T07:31:54.445Z,15.99
2023-05-08T07:34:21.530Z,15.91
2023-05-08T07:36:48.505Z,16.12
2023-05-08T07:39:15.720Z,15.63
2023-05-08T07:41:43.100Z,15.70
2023-05-08T07:44:10.224Z,15.70
2023-05-08T07:46:37.592Z,15.53
2023-05-08T07:49:04.747Z,15.74
2023-05-08T07:51:32.509Z,15.78
2023-05-08T07:53:59.578Z,15.88
2023-05-08T07:56:27.479Z,16.03
2023-05-08T07:58:54.633Z,16.02
2023-05-08T08:01:21.786Z,16.36
2023-05-08T08:03:49.197Z,16.34
2023-05-08T08:06:17.134Z,16.64
2023-05-08T08:08:44.631Z,16.84
2023-05-08T08:11:11.787Z,16.76
2023-05-08T08:13:39.119Z,16.92
2023-05-08T08:16:06.671Z,16.78
2023-05-08T08:18:37.108Z,16.93
2023-05-08T08:21:07.634Z,16.08
2023-05-08T08:23:34.818Z,16.52
2023-05-08T08:26:01.816Z,16.73
2023-05-08T08:28:29.287Z,16.53
2023-05-08T08:30:56.448Z,15.76
2023-05-08T08:33:23.590Z,16.61
2023-05-08T08:35:50.592Z,16.80
2023-05-08T08:38:17.662Z,16.47
2023-05-08T08:40:44.726Z,16.85
2023-05-08T08:43:11.720Z,16.88
2023-05-08T08:45:39.644Z,16.93
2023-05-08T08:48:10.118Z,17.17
2023-05-08T08:50:37.397Z,17.48
2023-05-08T08:53:21.701Z,15.43
2023-05-08T08:55:50.474Z,14.50
2023-05-08T08:58:41.034Z,15.86
2023-05-08T09:01:08.220Z,15.76
2023-05-08T09:03:35.625Z,16.07
2023-05-08T09:06:02.732Z,16.27
2023-05-08T09:08:29.950Z,17.05
2023-05-08T09:10:56.953Z,17.08
2023-05-08T09:13:24.046Z,17.25
2023-05-08T09:15:51.273Z,17.30
2023-05-08T09:18:19.353Z,17.71
2023-05-08T09:20:46.679Z,17.79
2023-05-08T09:23:17.349Z,18.10
2023-05-08T09:25:44.560Z,18.12
2023-05-08T09:28:18.736Z,18.20
2023-05-08T09:30:53.213Z,17.73
2023-05-08T09:33:21.027Z,18.19
2023-05-08T09:35:50.800Z,17.43
2023-05-08T09:38:37.319Z,16.76
2023-05-08T09:41:11.596Z,16.72
2023-05-08T09:43:38.873Z,15.97
2023-05-08T09:46:24.675Z,16.44
2023-05-08T09:48:59.227Z,16.47
2023-05-08T09:51:27.818Z,17.57
2023-05-08T09:53:55.499Z,17.64
2023-05-08T09:56:39.472Z,18.44
2023-05-08T09:59:29.974Z,16.98
2023-05-08T10:01:58.035Z,16.65
2023-05-08T10:04:32.463Z,16.23
2023-05-08T10:06:59.667Z,17.44
2023-05-08T10:09:32.854Z,17.72
2023-05-08T10:12:06.434Z,17.64
2023-05-08T10:14:33.464Z,17.28
2023-05-08T10:17:00.609Z,16.73
2023-05-08T10:19:28.461Z,17.54
2023-05-08T10:21:56.358Z,17.36
2023-05-08T10:24:33.376Z,18.31
2023-05-08T10:27:20.081Z,18.03
2023-05-08T10:29:52.542Z,18.12
2023-05-08T10:32:20.415Z,19.28
2023-05-08T10:34:59.126Z,18.89
2023-05-08T10:37:26.432Z,19.82
2023-05-08T10:39:54.006Z,19.83
2023-05-08T10:42:21.211Z,19.12
2023-05-08T10:44:48.245Z,18.17
2023-05-08T10:47:40.390Z,17.98
2023-05-08T10:50:19.478Z,19.39
2023-05-08T10:53:14.340Z,18.84
2023-05-08T10:55:42.401Z,18.31
2023-05-08T10:58:15.208Z,17.28
2023-05-08T11:00:57.605Z,17.68
2023-05-08T11:03:32.205Z,17.63
2023-05-08T11:06:00.560Z,17.76
2023-05-08T11:08:28.238Z,17.57
2023-05-08T11:11:01.895Z,17.56
2023-05-08T11:13:36.423Z,18.17
2023-05-08T11:16:04.146Z,18.70
2023-05-08T11:18:45.696Z,17.45
2023-05-08T11:21:20.786Z,17.66
2023-05-08T11:23:47.767Z,17.25
2023-05-08T11:26:17.576Z,18.54
2023-05-08T11:28:53.781Z,19.62
2023-05-08T11:31:20.949Z,17.83
2023-05-08T11:33:48.060Z,18.06
2023-05-08T11:36:15.458Z,17.53
2023-05-08T11:38:43.798Z,17.99
2023-05-08T11:41:11.252Z,18.61
2023-05-08T11:43:55.527Z,18.58
2023-05-08T11:46:22.692Z,19.39
2023-05-08T11:48:49.896Z,19.26
2023-05-08T11:51:18.174Z,18.38
2023-05-08T11:53:45.229Z,18.79
2023-05-08T11:56:12.205Z,18.84
2023-05-08T11:58:39.268Z,18.37
2023-05-08T12:01:06.775Z,17.91
2023-05-08T12:03:33.963Z,18.67
2023-05-08T12:06:01.035Z,18.40
2023-05-08T12:08:28.051Z,18.88
2023-05-08T12:10:56.898Z,18.30
2023-05-08T12:13:26.095Z,18.16
2023-05-08T12:15:57.637Z,18.31
2023-05-08T12:18:26.249Z,19.19
2023-05-08T12:21:00.057Z,18.59
2023-05-08T12:23:28.859Z,18.14
2023-05-08T12:25:59.040Z,17.59
2023-05-08T12:28:26.170Z,18.00
2023-05-08T12:30:53.498Z,18.21
2023-05-08T12:33:20.505Z,18.32
2023-05-08T12:35:47.482Z,18.66
2023-05-08T12:38:14.542Z,19.21
2023-05-08T12:40:44.728Z,18.31
2023-05-08T12:43:11.910Z,18.33
2023-05-08T12:45:40.534Z,18.92
2023-05-08T12:48:09.026Z,20.05
2023-05-08T12:50:43.394Z,19.83
2023-05-08T12:53:14.901Z,19.96
2023-05-08T12:56:08.200Z,19.18
2023-05-08T12:58:35.617Z,18.53
2023-05-08T13:01:13.549Z,18.34
2023-05-08T13:03:41.208Z,18.79
2023-05-08T13:06:10.769Z,19.10
2023-05-08T13:08:38.425Z,19.55
2023-05-08T13:11:06.326Z,19.50
2023-05-08T13:13:34.533Z,20.06
2023-05-08T13:16:05.786Z,19.01
2023-05-08T13:18:33.069Z,19.52
2023-05-08T13:21:02.222Z,20.59
2023-05-08T13:23:29.418Z,21.53
2023-05-08T13:25:56.777Z,20.09
2023-05-08T13:28:23.824Z,19.97
2023-05-08T13:30:50.815Z,19.94
2023-05-08T13:33:17.821Z,19.57
2023-05-08T13:35:46.069Z,19.59
2023-05-08T13:38:13.224Z,19.81
2023-05-08T13:40:40.359Z,19.36
2023-05-08T13:43:07.390Z,18.62
2023-05-08T13:45:34.506Z,18.43
2023-05-08T13:48:01.560Z,18.31
2023-05-08T13:50:28.632Z,17.86
2023-05-08T13:52:55.636Z,18.13
2023-05-08T13:55:23.401Z,18.21
2023-05-08T13:57:50.734Z,18.71
2023-05-08T14:00:18.304Z,18.34
2023-05-08T14:02:45.514Z,18.50
2023-05-08T14:05:12.824Z,17.80
2023-05-08T14:07:40.223Z,17.67
2023-05-08T14:10:07.430Z,17.74
2023-05-08T14:12:36.476Z,17.68
2023-05-08T14:15:04.865Z,17.87
2023-05-08T14:17:32.021Z,17.65
2023-05-08T14:19:59.348Z,17.14
2023-05-08T14:22:26.393Z,17.19
2023-05-08T14:24:53.386Z,17.47
2023-05-08T14:27:20.592Z,17.26
2023-05-08T14:29:47.824Z,17.59
2023-05-08T14:32:14.811Z,17.10
2023-05-08T14:34:42.110Z,17.26
2023-05-08T14:37:09.167Z,17.66
2023-05-08T14:39:36.240Z,17.33
2023-05-08T14:44:33.220Z,18.09
2023-05-08T14:47:00.421Z,17.34
2023-05-08T14:49:36.708Z,17.17
2023-05-08T14:52:05.729Z,17.20
2023-05-08T14:54:32.923Z,17.31
2023-05-08T14:57:00.197Z,17.29
2023-05-08T14:59:27.216Z,17.47
2023-05-08T15:01:54.235Z,17.77
2023-05-08T15:04:21.445Z,18.14
2023-05-08T15:06:48.554Z,17.55
2023-05-08T15:09:16.698Z,17.16
2023-05-08T15:11:44.199Z,17.69
2023-05-08T15:14:11.403Z,17.28
2023-05-08T15:16:38.708Z,17.46
2023-05-08T15:19:05.969Z,17.41
2023-05-08T15:21:32.982Z,16.78
2023-05-08T15:24:00.052Z,17.21
2023-05-08T15:26:26.998Z,17.15
2023-05-08T15:28:54.010Z,17.57
2023-05-08T15:31:21.112Z,17.63
2023-05-08T15:33:48.474Z,17.39
2023-05-08T15:36:15.644Z,17.71
2023-05-08T15:38:42.958Z,17.35
2023-05-08T15:41:15.426Z,17.09
2023-05-08T15:43:43.170Z,16.97
2023-05-08T15:46:10.531Z,17.26
2023-05-08T15:48:37.622Z,17.40
2023-05-08T15:51:04.634Z,17.43
2023-05-08T15:53:32.970Z,17.51
2023-05-08T15:55:59.902Z,17.70
2023-05-08T15:58:27.704Z,17.50
2023-05-08T16:00:54.941Z,18.12
2023-05-08T16:03:22.155Z,18.11
2023-05-08T16:05:49.425Z,18.43
2023-05-08T16:08:16.467Z,18.63
2023-05-08T16:10:43.646Z,19.05
2023-05-08T16:13:10.817Z,17.67
2023-05-08T16:15:37.858Z,17.76
2023-05-08T16:18:05.111Z,18.19
2023-05-08T16:20:33.571Z,18.44
2023-05-08T16:23:02.775Z,17.30
2023-05-08T16:25:29.722Z,17.44
2023-05-08T16:27:56.725Z,18.01
2023-05-08T16:30:23.774Z,17.90
2023-05-08T16:32:50.872Z,17.29
2023-05-08T16:35:18.072Z,17.64
2023-05-08T16:37:45.545Z,17.31
2023-05-08T16:40:12.750Z,17.80
2023-05-08T16:42:39.797Z,17.11
2023-05-08T16:45:07.843Z,17.69
2023-05-08T16:47:35.058Z,17.17
2023-05-08T16:50:02.148Z,17.02
2023-05-08T16:52:29.644Z,17.12
2023-05-08T16:54:56.887Z,17.46
2023-05-08T16:57:24.004Z,17.76
2023-05-08T16:59:51.958Z,17.12
2023-05-08T17:02:19.346Z,17.63
2023-05-08T17:04:47.393Z,17.33
2023-05-08T17:07:14.962Z,17.52
2023-05-08T17:09:42.054Z,17.63
2023-05-08T17:12:09.383Z,17.89
2023-05-08T17:14:39.289Z,18.16
2023-05-08T17:17:07.117Z,18.05
2023-05-08T17:19:34.321Z,18.50
2023-05-08T17:22:01.457Z,18.29
2023-05-08T17:24:32.352Z,18.11
2023-05-08T17:26:59.675Z,18.36
2023-05-08T17:29:26.806Z,17.49
2023-05-08T17:31:53.845Z,17.67
2023-05-08T17:34:22.735Z,17.74
2023-05-08T17:36:50.124Z,17.89
2023-05-08T17:39:19.939Z,17.93
2023-05-08T17:41:49.880Z,18.17
2023-05-08T17:44:17.184Z,18.37
2023-05-08T17:46:44.502Z,18.33
2023-05-08T17:49:11.547Z,17.49
2023-05-08T17:51:38.629Z,17.87
2023-05-08T17:54:05.698Z,18.24
2023-05-08T17:56:32.747Z,17.98
2023-05-08T17:58:59.724Z,17.81
2023-05-08T18:01:26.802Z,18.27
2023-05-08T18:03:53.784Z,18.17
2023-05-08T18:06:20.966Z,17.78
2023-05-08T18:08:48.087Z,18.25
2023-05-08T18:11:18.900Z,17.90
2023-05-08T18:13:46.101Z,18.65
2023-05-08T18:16:13.729Z,19.11
2023-05-08T18:18:40.798Z,19.33
2023-05-08T18:21:07.992Z,19.42
2023-05-08T18:23:35.031Z,19.76
2023-05-08T18:26:02.318Z,19.76
2023-05-08T18:28:29.328Z,19.80
2023-05-08T18:30:56.493Z,19.87
2023-05-08T18:33:23.507Z,20.17
2023-05-08T18:35:51.448Z,20.14
2023-05-08T18:38:18.553Z,20.23
2023-05-08T18:40:45.892Z,20.18
2023-05-08T18:43:12.913Z,20.06
2023-05-08T18:45:40.541Z,20.03
2023-05-08T18:48:08.566Z,20.07
2023-05-08T18:50:35.714Z,20.20
2023-05-08T18:53:02.772Z,20.16
2023-05-08T18:55:29.738Z,20.24
2023-05-08T18:57:56.802Z,20.32
2023-05-08T19:00:24.332Z,20.34
2023-05-08T19:02:51.673Z,20.33
2023-05-08T19:05:19.129Z,20.44
2023-05-08T19:07:46.199Z,20.36
2023-05-08T19:10:14.000Z,20.26
2023-05-08T19:12:41.232Z,20.12
2023-05-08T19:15:13.771Z,20.10
2023-05-08T19:17:41.452Z,20.02
2023-05-08T19:20:08.968Z,19.89
2023-05-08T19:22:36.165Z,19.76
2023-05-08T19:25:03.637Z,19.55
2023-05-08T19:27:32.188Z,19.26
2023-05-08T19:29:59.256Z,19.02
2023-05-08T19:32:26.343Z,18.91
2023-05-08T19:34:55.424Z,18.79
2023-05-08T19:37:22.416Z,18.69
2023-05-08T19:39:49.398Z,18.72
2023-05-08T19:42:16.642Z,18.84
2023-05-08T19:44:43.652Z,18.90
2023-05-08T19:47:10.620Z,18.90
2023-05-08T19:49:37.645Z,18.93
2023-05-08T19:52:04.845Z,18.74
2023-05-08T19:54:31.958Z,18.68
2023-05-08T19:56:59.323Z,18.59
2023-05-08T19:59:26.811Z,18.61
2023-05-08T20:01:53.991Z,18.45
2023-05-08T20:04:21.229Z,18.44
2023-05-08T20:06:48.258Z,18.38
2023-05-08T20:09:15.213Z,18.35
2023-05-08T20:11:42.213Z,18.31
2023-05-08T20:14:09.331Z,18.13
2023-05-08T20:16:36.947Z,18.05
2023-05-08T20:19:04.031Z,17.99
2023-05-08T20:21:32.480Z,17.98
2023-05-08T20:24:02.648Z,18.03
2023-05-08T20:26:29.917Z,18.05
2023-05-08T20:28:57.364Z,18.01
2023-05-08T20:31:25.960Z,17.96
2023-05-08T20:33:53.383Z,17.94
2023-05-08T20:36:20.595Z,17.92
2023-05-08T20:38:47.645Z,17.94
2023-05-08T20:41:14.648Z,17.99
2023-05-08T20:43:41.613Z,17.87
2023-05-08T20:46:08.751Z,17.78
2023-05-08T20:48:36.781Z,17.68
2023-05-08T20:51:04.161Z,17.54
2023-05-08T20:53:32.120Z,17.40
2023-05-08T20:56:02.787Z,17.37
2023-05-08T20:58:29.867Z,17.39
2023-05-08T21:00:56.920Z,17.44
2023-05-08T21:03:24.021Z,17.46
2023-05-08T21:05:51.562Z,17.47
2023-05-08T21:08:22.057Z,17.44
2023-05-08T21:10:49.185Z,17.46
2023-05-08T21:13:16.582Z,17.39
2023-05-08T21:15:43.882Z,17.32
2023-05-08T21:18:12.023Z,17.27
2023-05-08T21:20:39.059Z,17.31
2023-05-08T21:23:06.202Z,17.25
2023-05-08T21:25:33.448Z,17.21
2023-05-08T21:28:00.557Z,17.20
2023-05-08T21:30:28.254Z,17.18
2023-05-08T21:32:55.681Z,17.11
2023-05-08T21:35:22.874Z,17.02
2023-05-08T21:37:53.853Z,17.01
2023-05-08T21:40:22.047Z,16.88
2023-05-08T21:42:49.127Z,16.96
2023-05-08T21:45:16.403Z,16.99
2023-05-08T21:47:43.617Z,16.88
2023-05-08T21:50:11.093Z,16.83
2023-05-08T21:52:38.218Z,16.74
2023-05-08T21:55:08.810Z,16.74
2023-05-08T21:57:36.099Z,16.68
2023-05-08T22:00:04.453Z,16.63
2023-05-08T22:02:32.518Z,16.66
2023-05-08T22:04:59.630Z,16.52
2023-05-08T22:07:26.626Z,16.51
2023-05-08T22:09:53.664Z,16.49
2023-05-08T22:12:20.764Z,16.49
2023-05-08T22:14:47.814Z,16.45
2023-05-08T22:17:14.858Z,16.41
2023-05-08T22:19:41.896Z,16.42
2023-05-08T22:22:08.891Z,16.37
2023-05-08T22:24:35.911Z,16.32
2023-05-08T22:27:02.933Z,16.05
2023-05-08T22:29:29.975Z,15.90
2023-05-08T22:31:57.147Z,15.80
2023-05-08T22:34:24.219Z,15.80
2023-05-08T22:36:51.244Z,15.79
2023-05-08T22:39:18.188Z,15.75
2023-05-08T22:41:45.394Z,15.77
2023-05-08T22:44:12.434Z,15.74
2023-05-08T22:46:39.581Z,15.72
2023-05-08T22:49:06.674Z,15.67
2023-05-08T22:51:33.671Z,15.78
2023-05-08T22:54:00.787Z,15.76
2023-05-08T22:56:27.796Z,15.72
2023-05-08T22:58:55.104Z,15.72
2023-05-08T23:01:22.547Z,15.65
2023-05-08T23:03:53.830Z,15.74
2023-05-08T23:06:21.073Z,15.76
2023-05-08T23:08:48.068Z,15.78
2023-05-08T23:11:15.826Z,15.81
2023-05-08T23:13:42.814Z,15.77
2023-05-08T23:16:09.792Z,15.81
2023-05-08T23:18:36.922Z,15.83
2023-05-08T23:21:07.418Z,15.80
2023-05-08T23:23:35.090Z,15.80
2023-05-08T23:26:05.097Z,15.84
2023-05-08T23:28:35.294Z,15.90
2023-05-08T23:31:02.612Z,16.02
2023-05-08T23:33:29.696Z,15.90
2023-05-08T23:35:57.382Z,15.79
2023-05-08T23:38:24.569Z,15.52
2023-05-08T23:40:51.734Z,15.54
2023-05-08T23:43:18.727Z,15.48
2023-05-08T23:45:45.711Z,15.51
2023-05-08T23:48:12.723Z,15.47
2023-05-08T23:50:40.821Z,15.52
2023-05-08T23:53:07.936Z,15.55
2023-05-08T23:55:36.541Z,15.57
2023-05-08T23:58:04.083Z,15.54
